sensor_id;sensor_type;location;lat;lon;timestamp;pressure;altitude;pressure_sealevel;temperature;humidity
60099;BME280;62818;49.394;8.686;2023-04-30T00:00:13;100748.25;;;12.82;96.41
60099;BME280;62818;49.394;8.686;2023-04-30T00:01:14;100745.69;;;13.03;97.18
60099;BME280;62818;49.394;8.686;2023-04-30T00:02:14;100746.66;;;13.24;96.25
60099;BME280;62818;49.394;8.686;2023-04-30T00:03:15;100748.22;;;13.33;95.16
60099;BME280;62818;49.394;8.686;2023-04-30T00:04:15;100748.22;;;13.33;95.02
60099;BME280;62818;49.394;8.686;2023-04-30T00:05:16;100742.16;;;13.39;93.54
60099;BME280;62818;49.394;8.686;2023-04-30T00:06:16;100735.72;;;13.49;93.09
60099;BME280;62818;49.394;8.686;2023-04-30T00:07:17;100748.78;;;13.44;92.60
60099;BME280;62818;49.394;8.686;2023-04-30T00:08:17;100742.97;;;13.11;94.33
60099;BME280;62818;49.394;8.686;2023-04-30T00:09:18;100746.84;;;13.08;96.19
60099;BME280;62818;49.394;8.686;2023-04-30T00:10:19;100749.59;;;13.29;94.82
60099;BME280;62818;49.394;8.686;2023-04-30T00:11:19;100749.06;;;13.19;94.35
60099;BME280;62818;49.394;8.686;2023-04-30T00:12:19;100743.53;;;13.35;95.38
60099;BME280;62818;49.394;8.686;2023-04-30T00:13:20;100751.53;;;13.35;94.68
60099;BME280;62818;49.394;8.686;2023-04-30T00:14:21;100749.41;;;13.46;94.82
60099;BME280;62818;49.394;8.686;2023-04-30T00:15:21;100749.13;;;13.11;92.87
60099;BME280;62818;49.394;8.686;2023-04-30T00:16:22;100756.88;;;12.84;95.51
60099;BME280;62818;49.394;8.686;2023-04-30T00:17:22;100757.53;;;12.86;98.05
60099;BME280;62818;49.394;8.686;2023-04-30T00:18:23;100755.59;;;12.80;97.80
60099;BME280;62818;49.394;8.686;2023-04-30T00:19:23;100753.03;;;13.01;97.87
60099;BME280;62818;49.394;8.686;2023-04-30T00:20:24;100760.50;;;13.05;96.33
60099;BME280;62818;49.394;8.686;2023-04-30T00:21:24;100759.13;;;13.09;95.15
60099;BME280;62818;49.394;8.686;2023-04-30T00:22:25;100756.69;;;12.85;96.00
60099;BME280;62818;49.394;8.686;2023-04-30T00:23:25;100759.44;;;13.14;95.36
60099;BME280;62818;49.394;8.686;2023-04-30T00:24:27;100759.03;;;13.17;93.36
60099;BME280;62818;49.394;8.686;2023-04-30T00:25:27;100759.19;;;13.01;88.88
60099;BME280;62818;49.394;8.686;2023-04-30T00:26:28;100756.59;;;12.93;89.14
60099;BME280;62818;49.394;8.686;2023-04-30T00:27:28;100764.88;;;12.98;87.44
60099;BME280;62818;49.394;8.686;2023-04-30T00:28:30;100756.97;;;12.90;88.26
60099;BME280;62818;49.394;8.686;2023-04-30T00:29:31;100760.00;;;12.87;89.40
60099;BME280;62818;49.394;8.686;2023-04-30T00:30:31;100756.78;;;12.77;89.21
60099;BME280;62818;49.394;8.686;2023-04-30T00:31:31;100763.69;;;12.86;88.83
60099;BME280;62818;49.394;8.686;2023-04-30T00:32:32;100761.50;;;12.67;89.53
60099;BME280;62818;49.394;8.686;2023-04-30T00:33:32;100763.03;;;12.84;89.64
60099;BME280;62818;49.394;8.686;2023-04-30T00:34:33;100764.13;;;12.75;89.72
60099;BME280;62818;49.394;8.686;2023-04-30T00:35:33;100762.94;;;12.78;89.77
60099;BME280;62818;49.394;8.686;2023-04-30T00:36:34;100771.13;;;12.91;89.30
60099;BME280;62818;49.394;8.686;2023-04-30T00:37:34;100761.88;;;13.01;88.73
60099;BME280;62818;49.394;8.686;2023-04-30T00:38:35;100768.13;;;12.71;88.92
60099;BME280;62818;49.394;8.686;2023-04-30T00:39:36;100762.31;;;12.90;88.85
60099;BME280;62818;49.394;8.686;2023-04-30T00:40:37;100767.03;;;12.80;88.51
60099;BME280;62818;49.394;8.686;2023-04-30T00:41:39;100764.66;;;12.85;89.08
60099;BME280;62818;49.394;8.686;2023-04-30T00:42:40;100761.56;;;12.96;88.39
60099;BME280;62818;49.394;8.686;2023-04-30T00:43:41;100759.09;;;12.95;88.94
60099;BME280;62818;49.394;8.686;2023-04-30T00:44:41;100760.28;;;12.92;88.46
60099;BME280;62818;49.394;8.686;2023-04-30T00:45:41;100755.94;;;12.77;89.39
60099;BME280;62818;49.394;8.686;2023-04-30T00:46:42;100754.16;;;12.69;89.48
60099;BME280;62818;49.394;8.686;2023-04-30T00:47:42;100758.28;;;12.57;90.01
60099;BME280;62818;49.394;8.686;2023-04-30T00:48:43;100755.00;;;12.70;89.68
60099;BME280;62818;49.394;8.686;2023-04-30T00:49:43;100758.78;;;12.75;88.38
60099;BME280;62818;49.394;8.686;2023-04-30T00:50:44;100759.78;;;12.74;89.01
60099;BME280;62818;49.394;8.686;2023-04-30T00:51:45;100759.06;;;12.80;88.92
60099;BME280;62818;49.394;8.686;2023-04-30T00:52:45;100755.09;;;12.76;88.21
60099;BME280;62818;49.394;8.686;2023-04-30T00:53:46;100758.50;;;12.85;87.85
60099;BME280;62818;49.394;8.686;2023-04-30T00:54:47;100760.13;;;12.71;89.13
60099;BME280;62818;49.394;8.686;2023-04-30T00:55:49;100758.06;;;12.81;89.97
60099;BME280;62818;49.394;8.686;2023-04-30T00:56:51;100750.50;;;12.70;89.66
60099;BME280;62818;49.394;8.686;2023-04-30T00:57:51;100752.63;;;12.60;89.43
60099;BME280;62818;49.394;8.686;2023-04-30T00:58:52;100745.97;;;12.56;89.11
60099;BME280;62818;49.394;8.686;2023-04-30T00:59:56;100750.38;;;12.49;89.39
60099;BME280;62818;49.394;8.686;2023-04-30T01:00:57;100756.19;;;12.67;88.58
60099;BME280;62818;49.394;8.686;2023-04-30T01:01:58;100747.22;;;12.68;88.48
60099;BME280;62818;49.394;8.686;2023-04-30T01:02:59;100744.25;;;12.63;88.61
60099;BME280;62818;49.394;8.686;2023-04-30T01:04:00;100756.06;;;12.60;88.92
60099;BME280;62818;49.394;8.686;2023-04-30T01:05:02;100750.50;;;12.70;88.66
60099;BME280;62818;49.394;8.686;2023-04-30T01:06:03;100756.34;;;12.51;88.89
60099;BME280;62818;49.394;8.686;2023-04-30T01:07:04;100752.88;;;12.65;88.85
60099;BME280;62818;49.394;8.686;2023-04-30T01:08:07;100748.28;;;12.59;88.96
60099;BME280;62818;49.394;8.686;2023-04-30T01:09:09;100755.44;;;12.58;88.23
60099;BME280;62818;49.394;8.686;2023-04-30T01:10:14;100753.78;;;12.57;87.46
60099;BME280;62818;49.394;8.686;2023-04-30T01:11:31;100751.13;;;12.57;88.68
60099;BME280;62818;49.394;8.686;2023-04-30T01:15:46;100758.09;;;12.58;92.03
60099;BME280;62818;49.394;8.686;2023-04-30T01:17:40;100767.97;;;12.50;92.33
60099;BME280;62818;49.394;8.686;2023-04-30T01:18:47;100754.25;;;12.61;92.55
60099;BME280;62818;49.394;8.686;2023-04-30T01:19:51;100760.59;;;12.60;92.16
60099;BME280;62818;49.394;8.686;2023-04-30T01:20:57;100755.97;;;12.54;91.97
60099;BME280;62818;49.394;8.686;2023-04-30T01:22:04;100755.28;;;12.60;92.26
60099;BME280;62818;49.394;8.686;2023-04-30T01:27:14;100748.16;;;12.75;89.84
60099;BME280;62818;49.394;8.686;2023-04-30T01:28:31;100753.25;;;12.62;90.83
60099;BME280;62818;49.394;8.686;2023-04-30T01:29:35;100748.59;;;12.64;92.18
60099;BME280;62818;49.394;8.686;2023-04-30T01:30:38;100749.66;;;12.92;92.67
60099;BME280;62818;49.394;8.686;2023-04-30T01:31:43;100748.16;;;12.75;91.50
60099;BME280;62818;49.394;8.686;2023-04-30T01:32:44;100750.16;;;12.73;91.48
60099;BME280;62818;49.394;8.686;2023-04-30T01:33:44;100740.16;;;12.75;93.10
60099;BME280;62818;49.394;8.686;2023-04-30T01:34:45;100742.84;;;12.75;92.74
60099;BME280;62818;49.394;8.686;2023-04-30T01:37:05;100749.69;;;12.70;92.60
60099;BME280;62818;49.394;8.686;2023-04-30T01:39:59;100748.78;;;12.40;90.22
60099;BME280;62818;49.394;8.686;2023-04-30T01:42:34;100751.56;;;12.46;87.79
60099;BME280;62818;49.394;8.686;2023-04-30T01:46:29;100745.47;;;12.38;87.58
60099;BME280;62818;49.394;8.686;2023-04-30T01:49:08;100746.94;;;12.40;86.40
60099;BME280;62818;49.394;8.686;2023-04-30T01:50:24;100744.47;;;12.39;85.87
60099;BME280;62818;49.394;8.686;2023-04-30T01:51:52;100743.47;;;12.40;85.98
60099;BME280;62818;49.394;8.686;2023-04-30T01:53:06;100745.28;;;12.39;86.69
60099;BME280;62818;49.394;8.686;2023-04-30T01:54:50;100744.53;;;12.31;86.66
60099;BME280;62818;49.394;8.686;2023-04-30T01:56:03;100750.69;;;12.31;86.62
60099;BME280;62818;49.394;8.686;2023-04-30T01:57:06;100749.00;;;12.30;86.31
60099;BME280;62818;49.394;8.686;2023-04-30T01:58:14;100749.66;;;12.32;86.13
60099;BME280;62818;49.394;8.686;2023-04-30T01:59:16;100749.47;;;12.34;86.53
60099;BME280;62818;49.394;8.686;2023-04-30T02:00:16;100751.59;;;12.38;86.46
60099;BME280;62818;49.394;8.686;2023-04-30T02:01:31;100753.16;;;12.33;86.60
60099;BME280;62818;49.394;8.686;2023-04-30T02:02:32;100749.19;;;12.29;87.81
60099;BME280;62818;49.394;8.686;2023-04-30T02:03:32;100752.19;;;12.26;87.31
60099;BME280;62818;49.394;8.686;2023-04-30T02:04:33;100750.00;;;12.29;87.07
60099;BME280;62818;49.394;8.686;2023-04-30T02:05:33;100747.41;;;12.21;88.33
60099;BME280;62818;49.394;8.686;2023-04-30T02:06:34;100742.88;;;12.30;88.23
60099;BME280;62818;49.394;8.686;2023-04-30T02:07:41;100754.84;;;12.26;88.39
60099;BME280;62818;49.394;8.686;2023-04-30T02:08:43;100751.38;;;12.25;87.85
60099;BME280;62818;49.394;8.686;2023-04-30T02:09:44;100748.56;;;12.27;88.34
60099;BME280;62818;49.394;8.686;2023-04-30T02:10:45;100742.03;;;12.29;87.46
60099;BME280;62818;49.394;8.686;2023-04-30T02:11:45;100750.31;;;12.34;88.21
60099;BME280;62818;49.394;8.686;2023-04-30T02:12:46;100754.09;;;12.40;87.69
60099;BME280;62818;49.394;8.686;2023-04-30T02:13:46;100743.69;;;12.30;88.02
60099;BME280;62818;49.394;8.686;2023-04-30T02:14:47;100743.91;;;12.21;87.88
60099;BME280;62818;49.394;8.686;2023-04-30T02:15:47;100745.38;;;12.31;88.15
60099;BME280;62818;49.394;8.686;2023-04-30T02:16:48;100744.53;;;12.31;87.94
60099;BME280;62818;49.394;8.686;2023-04-30T02:17:48;100744.53;;;12.31;88.26
60099;BME280;62818;49.394;8.686;2023-04-30T02:18:49;100749.84;;;12.31;88.24
60099;BME280;62818;49.394;8.686;2023-04-30T02:19:49;100745.25;;;12.25;88.44
60099;BME280;62818;49.394;8.686;2023-04-30T02:20:50;100745.59;;;12.22;88.37
60099;BME280;62818;49.394;8.686;2023-04-30T02:21:50;100750.06;;;12.21;88.37
60099;BME280;62818;49.394;8.686;2023-04-30T02:22:51;100752.53;;;12.23;88.03
60099;BME280;62818;49.394;8.686;2023-04-30T02:23:52;100742.41;;;12.26;87.68
60099;BME280;62818;49.394;8.686;2023-04-30T02:24:53;100746.88;;;12.26;88.79
60099;BME280;62818;49.394;8.686;2023-04-30T02:25:54;100748.91;;;12.24;88.40
60099;BME280;62818;49.394;8.686;2023-04-30T02:26:55;100738.97;;;12.18;89.04
60099;BME280;62818;49.394;8.686;2023-04-30T02:27:55;100744.28;;;12.18;89.08
60099;BME280;62818;49.394;8.686;2023-04-30T02:28:56;100741.22;;;12.29;88.84
60099;BME280;62818;49.394;8.686;2023-04-30T02:29:57;100747.91;;;12.25;88.96
60099;BME280;62818;49.394;8.686;2023-04-30T02:30:58;100744.88;;;12.28;89.38
60099;BME280;62818;49.394;8.686;2023-04-30T02:31:58;100738.44;;;12.22;88.83
60099;BME280;62818;49.394;8.686;2023-04-30T02:32:59;100736.13;;;12.19;88.65
60099;BME280;62818;49.394;8.686;2023-04-30T02:34:01;100745.78;;;12.20;89.15
60099;BME280;62818;49.394;8.686;2023-04-30T02:35:02;100743.59;;;12.24;89.12
60099;BME280;62818;49.394;8.686;2023-04-30T02:36:03;100739.25;;;12.23;89.50
60099;BME280;62818;49.394;8.686;2023-04-30T02:37:04;100741.91;;;12.23;88.64
60099;BME280;62818;49.394;8.686;2023-04-30T02:38:05;100743.47;;;12.17;88.65
60099;BME280;62818;49.394;8.686;2023-04-30T02:39:06;100735.69;;;12.16;89.09
60099;BME280;62818;49.394;8.686;2023-04-30T02:40:08;100742.94;;;12.22;88.22
60099;BME280;62818;49.394;8.686;2023-04-30T02:41:09;100743.59;;;12.24;87.87
60099;BME280;62818;49.394;8.686;2023-04-30T02:42:10;100748.31;;;12.14;88.42
60099;BME280;62818;49.394;8.686;2023-04-30T02:43:11;100749.66;;;12.10;88.34
60099;BME280;62818;49.394;8.686;2023-04-30T02:44:11;100743.69;;;12.08;88.87
60099;BME280;62818;49.394;8.686;2023-04-30T02:45:12;100738.38;;;12.08;88.56
60099;BME280;62818;49.394;8.686;2023-04-30T02:46:13;100747.28;;;12.15;89.27
60099;BME280;62818;49.394;8.686;2023-04-30T02:47:13;100746.31;;;12.16;88.59
60099;BME280;62818;49.394;8.686;2023-04-30T02:48:14;100737.72;;;12.06;88.79
60099;BME280;62818;49.394;8.686;2023-04-30T02:49:15;100741.03;;;12.08;88.61
60099;BME280;62818;49.394;8.686;2023-04-30T02:50:15;100749.66;;;12.10;88.62
60099;BME280;62818;49.394;8.686;2023-04-30T02:51:16;100749.84;;;12.08;88.58
60099;BME280;62818;49.394;8.686;2023-04-30T02:52:16;100744.06;;;12.05;89.03
60099;BME280;62818;49.394;8.686;2023-04-30T02:53:17;100748.97;;;12.16;89.04
60099;BME280;62818;49.394;8.686;2023-04-30T02:54:17;100752.16;;;12.11;88.52
60099;BME280;62818;49.394;8.686;2023-04-30T02:55:18;100746.19;;;12.09;88.93
60099;BME280;62818;49.394;8.686;2023-04-30T02:56:18;100747.38;;;12.07;89.27
60099;BME280;62818;49.394;8.686;2023-04-30T02:57:19;100757.03;;;12.00;89.68
60099;BME280;62818;49.394;8.686;2023-04-30T02:58:19;100738.25;;;12.01;90.00
60099;BME280;62818;49.394;8.686;2023-04-30T02:59:20;100744.06;;;12.05;89.77
60099;BME280;62818;49.394;8.686;2023-04-30T03:00:20;100749.91;;;12.00;90.48
60099;BME280;62818;49.394;8.686;2023-04-30T03:01:21;100751.72;;;12.00;90.00
60099;BME280;62818;49.394;8.686;2023-04-30T03:02:21;100736.59;;;12.00;89.81
60099;BME280;62818;49.394;8.686;2023-04-30T03:03:22;100747.91;;;11.94;89.86
60099;BME280;62818;49.394;8.686;2023-04-30T03:04:23;100746.47;;;11.92;90.23
60099;BME280;62818;49.394;8.686;2023-04-30T03:05:23;100746.41;;;12.00;90.69
60099;BME280;62818;49.394;8.686;2023-04-30T03:06:24;100746.06;;;12.03;89.12
60099;BME280;62818;49.394;8.686;2023-04-30T03:07:24;100747.75;;;11.96;90.44
60099;BME280;62818;49.394;8.686;2023-04-30T03:08:25;100746.16;;;11.86;91.37
60099;BME280;62818;49.394;8.686;2023-04-30T03:09:26;100748.41;;;11.98;90.96
60099;BME280;62818;49.394;8.686;2023-04-30T03:10:26;100745.69;;;12.06;90.12
60099;BME280;62818;49.394;8.686;2023-04-30T03:11:27;100751.38;;;12.03;90.03
60099;BME280;62818;49.394;8.686;2023-04-30T03:12:27;100749.06;;;12.00;90.68
60099;BME280;62818;49.394;8.686;2023-04-30T03:13:28;100756.38;;;11.98;89.99
60099;BME280;62818;49.394;8.686;2023-04-30T03:14:28;100756.72;;;11.95;90.22
60099;BME280;62818;49.394;8.686;2023-04-30T03:15:31;100761.44;;;11.84;90.51
60099;BME280;62818;49.394;8.686;2023-04-30T03:16:32;100760.09;;;11.88;90.78
60099;BME280;62818;49.394;8.686;2023-04-30T03:17:32;100756.72;;;11.95;91.02
60099;BME280;62818;49.394;8.686;2023-04-30T03:18:33;100758.91;;;11.91;90.70
60099;BME280;62818;49.394;8.686;2023-04-30T03:19:33;100754.50;;;11.75;91.45
60099;BME280;62818;49.394;8.686;2023-04-30T03:20:34;100757.81;;;11.77;91.75
60099;BME280;62818;49.394;8.686;2023-04-30T03:21:34;100757.81;;;11.77;91.91
60099;BME280;62818;49.394;8.686;2023-04-30T03:22:35;100756.81;;;11.78;92.21
60099;BME280;62818;49.394;8.686;2023-04-30T03:23:35;100750.84;;;11.76;91.69
60099;BME280;62818;49.394;8.686;2023-04-30T03:24:36;100754.38;;;11.69;92.15
60099;BME280;62818;49.394;8.686;2023-04-30T03:25:36;100756.84;;;11.70;91.71
60099;BME280;62818;49.394;8.686;2023-04-30T03:26:37;100753.53;;;11.68;91.82
60099;BME280;62818;49.394;8.686;2023-04-30T03:27:37;100756.00;;;11.78;90.95
60099;BME280;62818;49.394;8.686;2023-04-30T03:28:38;100757.88;;;11.69;91.47
60099;BME280;62818;49.394;8.686;2023-04-30T03:29:38;100758.50;;;11.63;92.30
60099;BME280;62818;49.394;8.686;2023-04-30T03:30:39;100759.34;;;11.72;91.72
60099;BME280;62818;49.394;8.686;2023-04-30T03:31:39;100749.91;;;11.69;91.60
60099;BME280;62818;49.394;8.686;2023-04-30T03:32:40;100759.34;;;11.72;90.84
60099;BME280;62818;49.394;8.686;2023-04-30T03:33:40;100755.69;;;11.73;90.82
60099;BME280;62818;49.394;8.686;2023-04-30T03:34:40;100756.19;;;11.68;91.61
60099;BME280;62818;49.394;8.686;2023-04-30T03:35:41;100759.16;;;11.65;92.50
60099;BME280;62818;49.394;8.686;2023-04-30T03:36:41;100759.34;;;11.72;91.91
60099;BME280;62818;49.394;8.686;2023-04-30T03:37:42;100755.50;;;11.74;91.10
60099;BME280;62818;49.394;8.686;2023-04-30T03:38:42;100760.16;;;11.72;91.50
60099;BME280;62818;49.394;8.686;2023-04-30T03:39:43;100755.22;;;11.69;91.65
60099;BME280;62818;49.394;8.686;2023-04-30T03:40:43;100762.00;;;11.72;91.08
60099;BME280;62818;49.394;8.686;2023-04-30T03:41:44;100757.81;;;11.77;91.00
60099;BME280;62818;49.394;8.686;2023-04-30T03:42:44;100757.75;;;11.85;90.95
60099;BME280;62818;49.394;8.686;2023-04-30T03:43:45;100757.09;;;11.83;90.68
60099;BME280;62818;49.394;8.686;2023-04-30T03:44:45;100755.28;;;11.84;90.90
60099;BME280;62818;49.394;8.686;2023-04-30T03:45:46;100763.25;;;11.84;90.57
60099;BME280;62818;49.394;8.686;2023-04-30T03:46:46;100754.78;;;11.88;90.54
60099;BME280;62818;49.394;8.686;2023-04-30T03:47:47;100761.59;;;11.83;90.50
60099;BME280;62818;49.394;8.686;2023-04-30T03:48:48;100760.09;;;11.88;90.94
60099;BME280;62818;49.394;8.686;2023-04-30T03:49:48;100756.00;;;11.78;90.73
60099;BME280;62818;49.394;8.686;2023-04-30T03:50:54;100759.44;;;11.86;91.00
60099;BME280;62818;49.394;8.686;2023-04-30T03:51:54;100763.72;;;11.87;90.21
60099;BME280;62818;49.394;8.686;2023-04-30T03:52:55;100754.78;;;11.88;90.51
60099;BME280;62818;49.394;8.686;2023-04-30T03:53:55;100763.31;;;11.76;91.07
60099;BME280;62818;49.394;8.686;2023-04-30T03:54:56;100761.44;;;11.84;91.49
60099;BME280;62818;49.394;8.686;2023-04-30T03:55:56;100764.78;;;11.78;91.18
60099;BME280;62818;49.394;8.686;2023-04-30T03:56:58;100759.94;;;11.82;91.39
60099;BME280;62818;49.394;8.686;2023-04-30T03:57:58;100759.94;;;11.82;90.84
60099;BME280;62818;49.394;8.686;2023-04-30T03:58:59;100767.75;;;11.83;91.64
60099;BME280;62818;49.394;8.686;2023-04-30T04:00:00;100763.06;;;11.85;90.68
60099;BME280;62818;49.394;8.686;2023-04-30T04:01:03;100763.06;;;11.94;90.65
60099;BME280;62818;49.394;8.686;2023-04-30T04:02:04;100757.09;;;11.83;90.57
60099;BME280;62818;49.394;8.686;2023-04-30T04:03:05;100761.13;;;11.79;90.62
60099;BME280;62818;49.394;8.686;2023-04-30T04:04:06;100751.16;;;11.81;90.47
60099;BME280;62818;49.394;8.686;2023-04-30T04:05:07;100760.78;;;11.82;90.73
60099;BME280;62818;49.394;8.686;2023-04-30T04:06:08;100748.28;;;11.91;91.00
60099;BME280;62818;49.394;8.686;2023-04-30T04:07:08;100761.59;;;11.83;90.94
60099;BME280;62818;49.394;8.686;2023-04-30T04:08:10;100752.88;;;11.97;90.75
60099;BME280;62818;49.394;8.686;2023-04-30T04:09:10;100749.47;;;11.88;90.72
60099;BME280;62818;49.394;8.686;2023-04-30T04:10:11;100751.81;;;11.83;90.30
60099;BME280;62818;49.394;8.686;2023-04-30T04:11:11;100751.81;;;11.83;90.12
60099;BME280;62818;49.394;8.686;2023-04-30T04:12:12;100757.75;;;11.85;90.34
60099;BME280;62818;49.394;8.686;2023-04-30T04:13:12;100755.09;;;11.85;90.76
60099;BME280;62818;49.394;8.686;2023-04-30T04:14:13;100752.16;;;11.80;91.36
60099;BME280;62818;49.394;8.686;2023-04-30T04:15:13;100758.47;;;11.79;91.53
60099;BME280;62818;49.394;8.686;2023-04-30T04:16:14;100756.28;;;11.83;90.94
60099;BME280;62818;49.394;8.686;2023-04-30T04:17:14;100761.59;;;11.83;91.07
60099;BME280;62818;49.394;8.686;2023-04-30T04:18:15;100754.44;;;11.92;90.94
60099;BME280;62818;49.394;8.686;2023-04-30T04:19:15;100766.22;;;11.89;90.56
60099;BME280;62818;49.394;8.686;2023-04-30T04:20:16;100758.78;;;11.84;90.75
60099;BME280;62818;49.394;8.686;2023-04-30T04:21:17;100753.81;;;11.81;91.80
60099;BME280;62818;49.394;8.686;2023-04-30T04:22:18;100756.81;;;11.78;91.61
60099;BME280;62818;49.394;8.686;2023-04-30T04:23:18;100764.09;;;11.84;91.99
60099;BME280;62818;49.394;8.686;2023-04-30T04:24:19;100750.75;;;11.93;92.29
60099;BME280;62818;49.394;8.686;2023-04-30T04:25:19;100753.78;;;11.89;92.28
60099;BME280;62818;49.394;8.686;2023-04-30T04:26:23;100758.53;;;11.94;91.86
60099;BME280;62818;49.394;8.686;2023-04-30T04:27:25;100766.75;;;11.84;91.00
60099;BME280;62818;49.394;8.686;2023-04-30T04:28:25;100765.44;;;11.80;91.80
60099;BME280;62818;49.394;8.686;2023-04-30T04:29:26;100772.72;;;11.86;91.78
60099;BME280;62818;49.394;8.686;2023-04-30T04:30:26;100773.19;;;11.90;91.84
60099;BME280;62818;49.394;8.686;2023-04-30T04:31:27;100775.38;;;11.86;91.26
60099;BME280;62818;49.394;8.686;2023-04-30T04:32:27;100769.66;;;11.98;90.87
60099;BME280;62818;49.394;8.686;2023-04-30T04:33:29;100773.41;;;11.80;91.26
60099;BME280;62818;49.394;8.686;2023-04-30T04:34:31;100778.03;;;11.86;91.19
60099;BME280;62818;49.394;8.686;2023-04-30T04:35:32;100776.84;;;11.89;91.85
60099;BME280;62818;49.394;8.686;2023-04-30T04:36:32;100775.06;;;11.81;92.27
60099;BME280;62818;49.394;8.686;2023-04-30T04:37:33;100782.50;;;11.86;92.13
60099;BME280;62818;49.394;8.686;2023-04-30T04:38:34;100778.34;;;11.83;92.30
60099;BME280;62818;49.394;8.686;2023-04-30T04:39:35;100772.00;;;11.93;91.90
60099;BME280;62818;49.394;8.686;2023-04-30T04:40:36;100777.69;;;11.89;91.73
60099;BME280;62818;49.394;8.686;2023-04-30T04:41:37;100784.81;;;11.89;91.28
60099;BME280;62818;49.394;8.686;2023-04-30T04:42:38;100782.28;;;11.96;91.22
60099;BME280;62818;49.394;8.686;2023-04-30T04:43:38;100779.66;;;11.87;91.22
60099;BME280;62818;49.394;8.686;2023-04-30T04:44:40;100778.34;;;11.83;92.25
60099;BME280;62818;49.394;8.686;2023-04-30T04:45:40;100790.59;;;11.93;91.33
60099;BME280;62818;49.394;8.686;2023-04-30T04:46:41;100787.94;;;11.93;91.15
60099;BME280;62818;49.394;8.686;2023-04-30T04:47:43;100781.34;;;11.88;90.73
60099;BME280;62818;49.394;8.686;2023-04-30T04:48:44;100785.22;;;12.01;90.40
60099;BME280;62818;49.394;8.686;2023-04-30T04:49:44;100772.50;;;11.96;90.26
60099;BME280;62818;49.394;8.686;2023-04-30T04:50:44;100787.94;;;11.93;90.57
60099;BME280;62818;49.394;8.686;2023-04-30T04:51:45;100777.31;;;11.93;91.15
60099;BME280;62818;49.394;8.686;2023-04-30T04:52:45;100775.81;;;11.98;90.72
60099;BME280;62818;49.394;8.686;2023-04-30T04:53:46;100789.25;;;11.97;90.41
60099;BME280;62818;49.394;8.686;2023-04-30T04:54:46;100782.75;;;11.99;90.95
60099;BME280;62818;49.394;8.686;2023-04-30T04:55:47;100778.28;;;12.00;91.60
60099;BME280;62818;49.394;8.686;2023-04-30T04:56:48;100784.50;;;11.84;91.22
60099;BME280;62818;49.394;8.686;2023-04-30T04:57:48;100780.03;;;11.84;91.44
60099;BME280;62818;49.394;8.686;2023-04-30T04:58:49;100782.44;;;12.02;90.37
60099;BME280;62818;49.394;8.686;2023-04-30T04:59:49;100786.59;;;11.97;90.63
60099;BME280;62818;49.394;8.686;2023-04-30T05:00:50;100790.66;;;11.84;90.55
60099;BME280;62818;49.394;8.686;2023-04-30T05:01:50;100791.97;;;11.88;91.11
60099;BME280;62818;49.394;8.686;2023-04-30T05:02:51;100786.97;;;11.94;90.98
60099;BME280;62818;49.394;8.686;2023-04-30T05:03:52;100787.59;;;11.96;91.14
60099;BME280;62818;49.394;8.686;2023-04-30T05:04:53;100787.44;;;11.97;90.19
60099;BME280;62818;49.394;8.686;2023-04-30T05:05:53;100788.25;;;11.98;90.23
60099;BME280;62818;49.394;8.686;2023-04-30T05:06:54;100791.78;;;11.90;91.26
60099;BME280;62818;49.394;8.686;2023-04-30T05:07:54;100790.66;;;11.84;91.27
60099;BME280;62818;49.394;8.686;2023-04-30T05:08:55;100787.69;;;11.79;92.27
60099;BME280;62818;49.394;8.686;2023-04-30T05:09:56;100786.69;;;11.80;92.59
60099;BME280;62818;49.394;8.686;2023-04-30T05:10:56;100786.78;;;11.95;92.15
60099;BME280;62818;49.394;8.686;2023-04-30T05:11:57;100791.63;;;11.92;92.40
60099;BME280;62818;49.394;8.686;2023-04-30T05:12:57;100788.25;;;11.98;92.71
60099;BME280;62818;49.394;8.686;2023-04-30T05:13:58;100794.09;;;11.93;91.95
60099;BME280;62818;49.394;8.686;2023-04-30T05:14:58;100787.34;;;11.82;91.82
60099;BME280;62818;49.394;8.686;2023-04-30T05:15:59;100796.09;;;11.91;92.00
60099;BME280;62818;49.394;8.686;2023-04-30T05:16:59;100785.09;;;12.02;91.97
60099;BME280;62818;49.394;8.686;2023-04-30T05:18:00;100782.56;;;12.01;91.41
60099;BME280;62818;49.394;8.686;2023-04-30T05:19:00;100789.47;;;11.87;91.03
60099;BME280;62818;49.394;8.686;2023-04-30T05:20:01;100779.47;;;11.97;90.53
60099;BME280;62818;49.394;8.686;2023-04-30T05:21:01;100788.44;;;11.96;91.82
60099;BME280;62818;49.394;8.686;2023-04-30T05:22:03;100790.09;;;11.97;91.09
60099;BME280;62818;49.394;8.686;2023-04-30T05:23:04;100787.25;;;11.99;91.37
60099;BME280;62818;49.394;8.686;2023-04-30T05:24:05;100783.13;;;11.96;91.08
60099;BME280;62818;49.394;8.686;2023-04-30T05:25:06;100789.94;;;11.90;92.50
60099;BME280;62818;49.394;8.686;2023-04-30T05:26:06;100790.78;;;11.91;92.49
60099;BME280;62818;49.394;8.686;2023-04-30T05:27:07;100779.00;;;11.94;90.98
60099;BME280;62818;49.394;8.686;2023-04-30T05:28:08;100793.88;;;12.03;91.88
60099;BME280;62818;49.394;8.686;2023-04-30T05:29:09;100792.09;;;11.95;91.28
60099;BME280;62818;49.394;8.686;2023-04-30T05:30:11;100785.94;;;11.95;92.15
60099;BME280;62818;49.394;8.686;2023-04-30T05:31:11;100794.22;;;12.00;91.34
60099;BME280;62818;49.394;8.686;2023-04-30T05:32:12;100795.53;;;12.04;90.56
60099;BME280;62818;49.394;8.686;2023-04-30T05:33:12;100797.19;;;12.05;91.40
60099;BME280;62818;49.394;8.686;2023-04-30T05:34:13;100783.75;;;12.29;90.65
60099;BME280;62818;49.394;8.686;2023-04-30T05:35:14;100785.59;;;12.28;89.92
60099;BME280;62818;49.394;8.686;2023-04-30T05:36:15;100779.09;;;12.31;90.35
60099;BME280;62818;49.394;8.686;2023-04-30T05:37:15;100789.06;;;12.29;89.39
60099;BME280;62818;49.394;8.686;2023-04-30T05:38:18;100795.78;;;12.17;89.96